createdAt,value
2023-01-19T00:01:27.900Z,19.50
2023-01-19T00:03:55.870Z,22.70
2023-01-19T00:06:23.809Z,13.10
2023-01-19T00:08:51.771Z,21.27
2023-01-19T00:11:19.785Z,17.70
2023-01-19T00:13:51.022Z,19.03
2023-01-19T00:16:23.177Z,18.27
2023-01-19T00:18:52.688Z,23.10
2023-01-19T00:21:22.473Z,19.80
2023-01-19T00:23:52.701Z,22.90
2023-01-19T00:26:22.162Z,22.70
2023-01-19T00:28:51.061Z,14.13
2023-01-19T00:31:21.924Z,21.17
2023-01-19T00:33:52.787Z,16.17
2023-01-19T00:36:20.941Z,21.47
2023-01-19T00:38:48.891Z,20.87
2023-01-19T00:41:17.345Z,17.30
2023-01-19T00:43:44.400Z,21.60
2023-01-19T00:46:12.369Z,20.97
2023-01-19T00:48:41.669Z,17.47
2023-01-19T00:51:09.640Z,14.20
2023-01-19T00:53:37.559Z,18.77
2023-01-19T00:56:05.849Z,20.63
2023-01-19T00:58:33.992Z,20.30
2023-01-19T01:01:03.817Z,19.37
2023-01-19T01:03:33.392Z,21.67
2023-01-19T01:06:03.740Z,20.77
2023-01-19T01:08:31.806Z,23.33
2023-01-19T01:10:59.882Z,18.43
2023-01-19T01:13:28.999Z,16.73
2023-01-19T01:15:57.899Z,14.80
2023-01-19T01:18:26.474Z,17.53
2023-01-19T01:20:56.268Z,21.53
2023-01-19T01:23:25.603Z,22.37
2023-01-19T01:25:53.556Z,17.90
2023-01-19T01:28:21.564Z,17.17
2023-01-19T01:30:49.573Z,19.70
2023-01-19T01:33:40.016Z,21.67
2023-01-19T01:36:06.207Z,18.23
2023-01-19T01:38:35.530Z,14.90
2023-01-19T01:41:03.627Z,20.83
2023-01-19T01:43:45.124Z,24.83
2023-01-19T01:46:15.768Z,24.70
2023-01-19T01:48:50.290Z,13.93
2023-01-19T01:51:27.039Z,13.00
2023-01-19T01:54:09.803Z,16.17
2023-01-19T01:56:40.198Z,16.43
2023-01-19T01:59:13.493Z,14.57
2023-01-19T02:01:58.900Z,18.87
2023-01-19T02:04:28.037Z,16.13
2023-01-19T02:07:13.591Z,16.87
2023-01-19T02:10:00.260Z,16.83
2023-01-19T02:12:46.543Z,15.27
2023-01-19T02:15:20.219Z,23.00
2023-01-19T02:17:48.755Z,15.63
2023-01-19T02:20:18.532Z,16.17
2023-01-19T02:22:50.112Z,15.50
2023-01-19T02:25:21.405Z,19.10
2023-01-19T02:27:51.311Z,14.30
2023-01-19T02:30:20.272Z,19.67
2023-01-19T02:32:48.286Z,16.30
2023-01-19T02:35:16.725Z,14.50
2023-01-19T02:37:46.261Z,9.03
2023-01-19T02:40:16.511Z,18.00
2023-01-19T02:42:49.579Z,21.07
2023-01-19T02:45:21.899Z,16.47
2023-01-19T02:47:52.090Z,14.40
2023-01-19T02:50:38.873Z,16.13
2023-01-19T02:53:21.368Z,11.93
2023-01-19T02:55:55.047Z,20.37
2023-01-19T02:58:34.784Z,19.30
2023-01-19T03:01:14.100Z,15.67
2023-01-19T03:03:53.602Z,12.50
2023-01-19T03:06:34.885Z,13.00
2023-01-19T03:09:10.071Z,17.37
2023-01-19T03:11:43.705Z,15.50
2023-01-19T03:14:18.219Z,20.13
2023-01-19T03:16:49.019Z,14.67
2023-01-19T03:19:23.431Z,17.67
2023-01-19T03:21:56.321Z,18.10
2023-01-19T03:24:28.204Z,19.30
2023-01-19T03:27:01.333Z,21.97
2023-01-19T03:29:35.261Z,16.53
2023-01-19T03:32:09.258Z,12.60
2023-01-19T03:34:40.401Z,18.40
2023-01-19T03:37:11.616Z,16.50
2023-01-19T03:39:39.920Z,14.73
2023-01-19T03:42:12.667Z,24.93
2023-01-19T03:44:45.273Z,16.27
2023-01-19T03:47:18.518Z,15.33
2023-01-19T03:49:49.048Z,17.23
2023-01-19T03:52:20.869Z,15.83
2023-01-19T03:54:49.488Z,16.93
2023-01-19T03:57:17.424Z,18.57
2023-01-19T03:59:46.735Z,16.40
2023-01-19T04:02:15.013Z,17.13
2023-01-19T04:04:43.139Z,15.53
2023-01-19T04:07:11.798Z,22.33
2023-01-19T04:09:39.755Z,17.27
2023-01-19T04:12:14.918Z,19.33
2023-01-19T04:14:42.952Z,25.83
2023-01-19T04:17:12.217Z,31.57
2023-01-19T04:19:45.179Z,27.57
2023-01-19T04:22:13.053Z,25.77
2023-01-19T04:24:40.971Z,23.93
2023-01-19T04:27:09.367Z,20.83
2023-01-19T04:29:37.309Z,24.63
2023-01-19T04:32:05.664Z,21.17
2023-01-19T04:34:35.320Z,25.53
2023-01-19T04:37:05.028Z,26.33
2023-01-19T04:39:32.947Z,35.90
2023-01-19T04:42:00.903Z,32.67
2023-01-19T04:44:29.215Z,28.13
2023-01-19T04:46:57.209Z,28.53
2023-01-19T04:49:25.284Z,31.60
2023-01-19T04:51:55.806Z,28.27
2023-01-19T04:54:23.923Z,27.03
2023-01-19T04:56:52.062Z,29.80
2023-01-19T04:59:21.348Z,28.60
2023-01-19T05:01:49.322Z,30.57
2023-01-19T05:04:17.603Z,26.67
2023-01-19T05:06:45.690Z,27.20
2023-01-19T05:09:15.562Z,35.60
2023-01-19T05:11:43.578Z,22.57
2023-01-19T05:14:11.715Z,28.17
2023-01-19T05:16:39.683Z,32.03
2023-01-19T05:19:07.680Z,22.50
2023-01-19T05:21:35.547Z,30.47
2023-01-19T05:24:04.127Z,27.33
2023-01-19T05:26:33.504Z,20.13
2023-01-19T05:29:01.354Z,27.37
2023-01-19T05:31:29.363Z,21.43
2023-01-19T05:33:57.489Z,29.67
2023-01-19T05:36:25.463Z,24.57
2023-01-19T05:38:53.406Z,23.67
2023-01-19T05:41:21.302Z,24.87
2023-01-19T05:43:50.546Z,15.90
2023-01-19T05:46:18.469Z,19.90
2023-01-19T05:48:46.439Z,30.03
2023-01-19T05:51:15.257Z,27.53
2023-01-19T05:53:43.414Z,21.33
2023-01-19T05:56:12.257Z,23.00
2023-01-19T05:58:40.656Z,24.40
2023-01-19T06:01:12.130Z,30.47
2023-01-19T06:03:41.019Z,27.10
2023-01-19T06:06:09.190Z,32.97
2023-01-19T06:08:37.574Z,29.70
2023-01-19T06:11:07.080Z,27.17
2023-01-19T06:13:35.570Z,22.43
2023-01-19T06:16:05.395Z,26.17
2023-01-19T06:18:35.107Z,31.47
2023-01-19T06:21:05.740Z,21.77
2023-01-19T06:23:35.023Z,26.37
2023-01-19T06:26:03.381Z,28.33
2023-01-19T06:28:31.414Z,18.03
2023-01-19T06:30:59.421Z,39.87
2023-01-19T06:33:27.880Z,24.13
2023-01-19T06:35:57.690Z,29.50
2023-01-19T06:38:25.750Z,28.23
2023-01-19T06:40:55.036Z,24.07
2023-01-19T06:43:23.472Z,21.53
2023-01-19T06:45:51.952Z,35.33
2023-01-19T06:48:20.501Z,29.40
2023-01-19T06:50:48.928Z,24.73
2023-01-19T06:53:20.808Z,25.97
2023-01-19T06:55:48.807Z,31.13
2023-01-19T06:58:16.941Z,33.33
2023-01-19T07:00:45.207Z,21.03
2023-01-19T07:03:20.612Z,29.20
2023-01-19T07:05:49.978Z,26.67
2023-01-19T07:08:19.397Z,19.67
2023-01-19T07:11:26.172Z,21.13
2023-01-19T07:13:36.213Z,20.53
2023-01-19T07:16:07.481Z,23.47
2023-01-19T07:18:36.472Z,28.33
2023-01-19T07:21:05.173Z,32.63
2023-01-19T07:23:35.049Z,28.90
2023-01-19T07:26:05.833Z,32.10
2023-01-19T07:28:33.916Z,31.50
2023-01-19T07:31:02.009Z,25.07
2023-01-19T07:33:30.173Z,30.23
2023-01-19T07:35:58.550Z,29.60
2023-01-19T07:38:26.638Z,20.87
2023-01-19T07:41:02.567Z,18.50
2023-01-19T07:43:30.870Z,27.73
2023-01-19T07:45:59.291Z,26.30
2023-01-19T07:48:27.318Z,27.87
2023-01-19T07:51:00.219Z,13.10
2023-01-19T07:53:28.188Z,28.67
2023-01-19T07:55:56.895Z,27.87
2023-01-19T07:58:26.486Z,21.93
2023-01-19T08:00:54.997Z,24.17
2023-01-19T08:03:23.255Z,34.20
2023-01-19T08:05:53.118Z,26.37
2023-01-19T08:08:21.327Z,29.07
2023-01-19T08:10:51.756Z,23.37
2023-01-19T08:13:19.843Z,24.53
2023-01-19T08:15:52.369Z,26.37
2023-01-19T08:18:21.187Z,31.27
2023-01-19T08:20:49.301Z,31.23
2023-01-19T08:23:18.408Z,36.97
2023-01-19T08:26:20.741Z,31.42
2023-01-19T08:28:48.655Z,26.42
2023-01-19T08:31:21.708Z,30.35
2023-01-19T08:33:51.120Z,26.13
2023-01-19T08:36:19.200Z,22.88
2023-01-19T08:38:47.606Z,36.03
2023-01-19T08:41:16.516Z,34.25
2023-01-19T08:43:45.541Z,25.80
2023-01-19T08:46:16.993Z,28.70
2023-01-19T08:48:48.285Z,23.02
2023-01-19T08:51:16.790Z,26.83
2023-01-19T08:53:45.079Z,29.25
2023-01-19T08:56:14.043Z,24.85
2023-01-19T08:58:43.011Z,23.88
2023-01-19T09:01:14.695Z,30.88
2023-01-19T09:03:42.811Z,25.05
2023-01-19T09:06:14.641Z,27.38
2023-01-19T09:08:42.505Z,24.48
2023-01-19T09:11:13.239Z,18.67
2023-01-19T09:13:41.786Z,20.60
2023-01-19T09:16:12.731Z,23.25
2023-01-19T09:18:41.156Z,22.85
2023-01-19T09:21:10.275Z,24.30
2023-01-19T09:23:39.593Z,28.73
2023-01-19T09:26:08.659Z,20.73
2023-01-19T09:28:36.631Z,25.42
2023-01-19T09:31:07.695Z,24.48
2023-01-19T09:33:36.425Z,22.85
2023-01-19T09:36:04.632Z,19.85
2023-01-19T09:38:33.111Z,19.02
2023-01-19T09:41:04.362Z,14.48
2023-01-19T09:43:38.588Z,15.68
2023-01-19T09:46:12.510Z,18.92
2023-01-19T09:48:47.170Z,25.08
2023-01-19T09:51:19.505Z,15.65
2023-01-19T09:53:56.453Z,16.50
2023-01-19T09:56:26.308Z,16.50
2023-01-19T09:58:54.482Z,21.17
2023-01-19T10:01:36.434Z,14.63
2023-01-19T10:04:27.117Z,22.90
2023-01-19T10:07:04.941Z,15.88
2023-01-19T10:09:38.171Z,14.25
2023-01-19T10:12:18.447Z,19.60
2023-01-19T10:14:54.905Z,17.30
2023-01-19T10:17:38.270Z,16.42
2023-01-19T10:20:18.124Z,18.58
2023-01-19T10:22:51.968Z,17.23
2023-01-19T10:25:23.918Z,14.25
2023-01-19T10:27:53.270Z,14.02
2023-01-19T10:30:24.029Z,14.90
2023-01-19T10:32:53.805Z,10.57
2023-01-19T10:35:25.228Z,14.90
2023-01-19T10:37:56.453Z,16.77
2023-01-19T10:40:32.095Z,15.63
2023-01-19T10:43:02.203Z,17.45
2023-01-19T10:45:32.565Z,12.27
2023-01-19T10:48:06.761Z,13.73
2023-01-19T10:50:39.981Z,13.80
2023-01-19T10:53:20.565Z,12.73
2023-01-19T10:55:48.448Z,18.60
2023-01-19T10:58:31.030Z,11.23
2023-01-19T11:01:15.337Z,13.40
2023-01-19T11:03:43.411Z,15.90
2023-01-19T11:06:22.985Z,14.23
2023-01-19T11:08:52.949Z,17.13
2023-01-19T11:11:22.765Z,10.23
2023-01-19T11:14:10.912Z,12.17
2023-01-19T11:16:40.217Z,14.33
2023-01-19T11:19:20.760Z,11.13
2023-01-19T11:21:49.267Z,13.43
2023-01-19T11:24:18.025Z,13.57
2023-01-19T11:26:49.298Z,13.27
2023-01-19T11:29:21.998Z,14.07
2023-01-19T11:34:39.097Z,13.50
2023-01-19T11:37:26.460Z,14.40
2023-01-19T11:39:57.111Z,13.00
2023-01-19T11:42:26.506Z,14.97
2023-01-19T11:45:04.294Z,14.20
2023-01-19T11:47:39.515Z,13.90
2023-01-19T11:50:14.621Z,12.67
2023-01-19T11:52:46.326Z,12.83
2023-01-19T11:55:21.213Z,13.10
2023-01-19T11:57:54.284Z,12.63
2023-01-19T12:00:30.268Z,12.90
2023-01-19T12:03:04.173Z,10.70
2023-01-19T12:05:35.419Z,10.30
2023-01-19T12:08:07.966Z,12.50
2023-01-19T12:10:43.851Z,8.93
2023-01-19T12:13:21.811Z,9.00
2023-01-19T12:15:57.905Z,13.77
2023-01-19T12:18:29.801Z,9.27
2023-01-19T12:20:58.907Z,12.23
2023-01-19T12:23:37.491Z,7.47
2023-01-19T12:26:30.083Z,10.90
2023-01-19T12:29:01.567Z,6.33
2023-01-19T12:31:31.180Z,10.67
2023-01-19T12:34:40.621Z,10.20
2023-01-19T12:37:25.780Z,12.73
2023-01-19T12:39:54.224Z,11.63
2023-01-19T12:42:22.289Z,9.90
2023-01-19T12:44:52.821Z,11.73
2023-01-19T12:47:24.499Z,8.70
2023-01-19T12:49:59.589Z,8.63
2023-01-19T12:52:34.768Z,5.70
2023-01-19T12:55:21.062Z,7.37
2023-01-19T12:58:00.221Z,12.30
2023-01-19T13:00:40.024Z,8.10
2023-01-19T13:03:46.563Z,11.43
2023-01-19T13:06:14.477Z,7.30
2023-01-19T13:09:00.820Z,9.17
2023-01-19T13:11:34.133Z,7.23
2023-01-19T13:14:35.494Z,5.20
2023-01-19T13:17:19.217Z,9.47
2023-01-19T13:20:03.240Z,12.43
2023-01-19T13:23:15.843Z,8.77
2023-01-19T13:26:00.171Z,7.20
2023-01-19T13:28:36.660Z,7.97
2023-01-19T13:31:07.171Z,10.43
2023-01-19T13:33:48.514Z,9.57
2023-01-19T13:36:26.905Z,5.87
2023-01-19T13:38:56.518Z,8.00
2023-01-19T13:41:27.053Z,11.53
2023-01-19T13:44:01.420Z,12.97
2023-01-19T13:46:30.098Z,13.00
2023-01-19T13:49:01.205Z,9.73
2023-01-19T13:51:30.766Z,7.63
2023-01-19T13:54:02.805Z,9.47
2023-01-19T13:56:31.678Z,10.67
2023-01-19T13:59:02.281Z,12.70
2023-01-19T14:01:32.168Z,6.00
2023-01-19T14:04:00.941Z,9.33
2023-01-19T14:06:37.238Z,10.37
2023-01-19T14:09:19.057Z,5.83
2023-01-19T14:11:48.668Z,6.30
2023-01-19T14:14:32.825Z,4.30
2023-01-19T14:17:00.865Z,8.73
2023-01-19T14:19:29.028Z,7.13
2023-01-19T14:22:03.978Z,5.87
2023-01-19T14:24:33.348Z,5.77
2023-01-19T14:27:19.358Z,9.43
2023-01-19T14:29:50.479Z,5.60
2023-01-19T14:32:22.530Z,8.10
2023-01-19T14:34:54.175Z,6.83
2023-01-19T14:37:29.089Z,5.73
2023-01-19T14:40:01.579Z,9.80
2023-01-19T14:42:33.482Z,11.53
2023-01-19T14:45:04.294Z,7.67
2023-01-19T14:47:38.026Z,8.90
2023-01-19T14:50:10.879Z,8.90
2023-01-19T14:52:46.517Z,7.80
2023-01-19T14:55:22.640Z,6.93
2023-01-19T14:57:50.885Z,5.90
2023-01-19T15:00:20.852Z,8.33
2023-01-19T15:02:49.131Z,8.20
2023-01-19T15:05:17.818Z,5.80
2023-01-19T15:07:48.023Z,5.03
2023-01-19T15:10:21.463Z,7.50
2023-01-19T15:12:50.002Z,6.77
2023-01-19T15:15:19.821Z,7.30
2023-01-19T15:17:47.920Z,7.63
2023-01-19T15:20:19.033Z,8.57
2023-01-19T15:22:49.159Z,9.70
2023-01-19T15:25:19.779Z,7.43
2023-01-19T15:27:49.008Z,7.67
2023-01-19T15:30:20.532Z,6.37
2023-01-19T15:32:49.005Z,6.87
2023-01-19T15:35:21.327Z,8.67
2023-01-19T15:37:51.303Z,13.23
2023-01-19T15:40:22.815Z,9.03
2023-01-19T15:42:51.681Z,7.90
2023-01-19T15:45:33.183Z,8.87
2023-01-19T15:48:02.688Z,10.33
2023-01-19T15:50:31.138Z,11.20
2023-01-19T15:53:00.712Z,10.83
2023-01-19T15:55:28.749Z,8.83
2023-01-19T15:58:01.645Z,12.23
2023-01-19T16:00:30.914Z,11.23
2023-01-19T16:02:59.605Z,7.37
2023-01-19T16:05:41.929Z,11.77
2023-01-19T16:08:12.470Z,15.87
2023-01-19T16:10:42.764Z,9.67
2023-01-19T16:13:12.486Z,5.50
2023-01-19T16:15:42.303Z,8.13
2023-01-19T16:18:10.374Z,7.67
2023-01-19T16:20:38.630Z,11.27
2023-01-19T16:23:15.225Z,7.87
2023-01-19T16:25:45.576Z,7.10
2023-01-19T16:28:13.891Z,10.43
2023-01-19T16:30:41.878Z,11.53
2023-01-19T16:33:11.661Z,5.63
2023-01-19T16:35:41.747Z,3.17
2023-01-19T16:38:10.302Z,5.13
2023-01-19T16:40:41.425Z,3.80
2023-01-19T16:43:11.446Z,3.53
2023-01-19T16:45:58.130Z,5.43
2023-01-19T16:48:27.796Z,5.03
2023-01-19T16:51:06.582Z,3.23
2023-01-19T16:53:35.778Z,5.83
2023-01-19T16:56:06.435Z,4.33
2023-01-19T16:58:38.249Z,2.67
2023-01-19T17:01:33.584Z,4.33
2023-01-19T17:04:01.815Z,3.20
2023-01-19T17:06:30.265Z,3.00
2023-01-19T17:08:59.347Z,2.77
2023-01-19T17:11:29.344Z,3.07
2023-01-19T17:14:02.189Z,3.87
2023-01-19T17:16:32.284Z,3.27
2023-01-19T17:19:02.372Z,4.63
2023-01-19T17:21:30.936Z,4.93
2023-01-19T17:24:00.510Z,3.17
2023-01-19T17:26:31.016Z,4.53
2023-01-19T17:29:01.557Z,5.23
2023-01-19T17:31:30.263Z,4.90
2023-01-19T17:34:03.731Z,3.60
2023-01-19T17:36:33.464Z,8.90
2023-01-19T17:39:06.250Z,4.97
2023-01-19T17:41:37.612Z,5.77
2023-01-19T17:44:07.956Z,5.13
2023-01-19T17:46:39.547Z,2.60
2023-01-19T17:49:11.216Z,3.90
2023-01-19T17:51:39.776Z,4.37
2023-01-19T17:54:08.240Z,4.90
2023-01-19T17:56:38.718Z,4.13
2023-01-19T17:59:08.551Z,5.33
2023-01-19T18:01:40.138Z,5.40
2023-01-19T18:04:11.337Z,4.70
2023-01-19T18:06:40.568Z,4.07
2023-01-19T18:09:16.260Z,3.83
2023-01-19T18:11:46.414Z,3.50
2023-01-19T18:14:18.116Z,5.23
2023-01-19T18:16:48.039Z,6.47
2023-01-19T18:19:16.513Z,2.80
2023-01-19T18:21:44.471Z,10.47
2023-01-19T18:24:14.035Z,9.03
2023-01-19T18:26:43.373Z,7.50
2023-01-19T18:29:11.526Z,9.87
2023-01-19T18:31:42.882Z,7.63
2023-01-19T18:34:12.154Z,6.83
2023-01-19T18:36:40.130Z,5.70
2023-01-19T18:39:10.522Z,6.97
2023-01-19T18:41:41.957Z,6.33
2023-01-19T18:44:10.903Z,3.30
2023-01-19T18:46:45.170Z,3.97
2023-01-19T18:49:14.387Z,6.10
2023-01-19T18:51:46.062Z,6.13
2023-01-19T18:54:14.154Z,4.00
2023-01-19T18:56:42.338Z,5.63
2023-01-19T18:59:11.073Z,0.77
2023-01-19T19:01:41.634Z,0.80
2023-01-19T19:04:14.857Z,0.63
2023-01-19T19:06:43.301Z,1.13
2023-01-19T19:09:11.204Z,0.77
2023-01-19T19:11:42.447Z,0.60
2023-01-19T19:14:12.011Z,0.67
2023-01-19T19:16:44.949Z,0.73
2023-01-19T19:19:15.595Z,1.13
2023-01-19T19:21:44.662Z,0.90
2023-01-19T19:24:15.148Z,1.90
2023-01-19T19:26:44.634Z,0.63
2023-01-19T19:29:15.195Z,0.60
2023-01-19T19:31:51.136Z,0.57
2023-01-19T19:34:19.105Z,0.60
2023-01-19T19:36:50.494Z,0.40
2023-01-19T19:39:19.935Z,0.37
2023-01-19T19:41:50.035Z,0.40
2023-01-19T19:44:18.119Z,0.50
2023-01-19T19:46:47.465Z,0.50
2023-01-19T19:49:17.809Z,0.30
2023-01-19T19:51:45.881Z,0.30
2023-01-19T19:54:15.178Z,0.80
2023-01-19T19:56:43.567Z,0.50
2023-01-19T19:59:11.618Z,0.50
2023-01-19T20:01:39.773Z,0.43
2023-01-19T20:04:11.083Z,0.67
2023-01-19T20:06:42.497Z,0.80
2023-01-19T20:09:12.829Z,1.53
2023-01-19T20:11:42.257Z,0.40
2023-01-19T20:14:13.779Z,0.50
2023-01-19T20:16:41.836Z,0.50
2023-01-19T20:19:11.847Z,0.60
2023-01-19T20:21:42.945Z,1.93
2023-01-19T20:24:14.945Z,1.40
2023-01-19T20:26:45.272Z,1.03
2023-01-19T20:29:13.197Z,1.33
2023-01-19T20:31:44.505Z,1.47
2023-01-19T20:34:15.994Z,1.10
2023-01-19T20:36:49.488Z,1.07
2023-01-19T20:39:17.920Z,0.53
2023-01-19T20:41:49.504Z,0.67
2023-01-19T20:44:21.076Z,0.60
2023-01-19T20:46:49.627Z,0.83
2023-01-19T20:49:22.578Z,0.70
2023-01-19T20:51:52.423Z,1.30
2023-01-19T20:54:24.501Z,0.80
2023-01-19T20:56:52.536Z,0.50
2023-01-19T20:59:21.140Z,0.63
2023-01-19T21:01:49.652Z,0.70
2023-01-19T21:04:19.473Z,1.40
2023-01-19T21:06:47.395Z,3.40
2023-01-19T21:09:15.512Z,1.03
2023-01-19T21:11:44.016Z,0.43
2023-01-19T21:14:12.550Z,1.80
2023-01-19T21:16:42.610Z,0.80
2023-01-19T21:19:10.709Z,0.60
2023-01-19T21:21:40.295Z,0.80
2023-01-19T21:24:11.531Z,1.37
2023-01-19T21:26:41.907Z,0.80
2023-01-19T21:29:13.332Z,0.87
2023-01-19T21:31:43.417Z,0.70
2023-01-19T21:34:11.767Z,0.90
2023-01-19T21:36:41.185Z,0.87
2023-01-19T21:39:19.986Z,0.70
2023-01-19T21:41:47.936Z,1.33
2023-01-19T21:44:20.213Z,0.77
2023-01-19T21:46:48.262Z,2.23
2023-01-19T21:49:19.382Z,2.87
2023-01-19T21:51:50.657Z,3.20
2023-01-19T21:54:19.525Z,2.80
2023-01-19T21:56:47.748Z,3.53
2023-01-19T21:59:20.201Z,2.43
2023-01-19T22:01:48.508Z,2.70
2023-01-19T22:04:16.545Z,2.90
2023-01-19T22:06:44.620Z,2.63
2023-01-19T22:09:14.071Z,3.20
2023-01-19T22:11:42.022Z,2.57
2023-01-19T22:14:11.465Z,2.17
2023-01-19T22:16:41.410Z,2.40
2023-01-19T22:19:17.148Z,2.60
2023-01-19T22:21:46.660Z,3.47
2023-01-19T22:24:18.622Z,4.67
2023-01-19T22:26:49.302Z,3.00
2023-01-19T22:29:18.165Z,3.37
2023-01-19T22:31:47.023Z,1.43
2023-01-19T22:34:17.084Z,1.43
2023-01-19T22:36:45.417Z,1.50
2023-01-19T22:39:15.551Z,0.60
2023-01-19T22:41:45.935Z,1.00
2023-01-19T22:44:15.800Z,0.73
2023-01-19T22:46:43.861Z,1.53
2023-01-19T22:49:15.353Z,0.70
2023-01-19T22:51:44.385Z,0.50
2023-01-19T22:54:12.359Z,0.60
2023-01-19T22:56:42.681Z,0.80
2023-01-19T22:59:10.707Z,1.60
2023-01-19T23:01:40.192Z,0.60
2023-01-19T23:04:10.435Z,0.70
2023-01-19T23:06:39.141Z,0.40
2023-01-19T23:09:08.394Z,1.50
2023-01-19T23:11:37.935Z,1.10
2023-01-19T23:14:08.017Z,0.57
2023-01-19T23:16:36.469Z,0.70
2023-01-19T23:19:05.167Z,0.57
2023-01-19T23:21:33.525Z,0.70
2023-01-19T23:24:03.544Z,0.53
2023-01-19T23:26:37.968Z,0.60
2023-01-19T23:29:09.585Z,0.43
2023-01-19T23:31:41.595Z,0.50
2023-01-19T23:34:11.254Z,0.70
2023-01-19T23:36:41.800Z,0.50
2023-01-19T23:39:14.470Z,0.80
2023-01-19T23:41:43.031Z,0.90
2023-01-19T23:44:14.012Z,0.63
2023-01-19T23:46:43.945Z,2.30
2023-01-19T23:49:13.696Z,1.60
2023-01-19T23:51:47.685Z,0.57
2023-01-19T23:54:17.175Z,0.53
2023-01-19T23:56:48.796Z,0.77
2023-01-19T23:59:20.192Z,0.97
